Time;durP1;ratioP1;P1;durP2;ratioP2;P2;SDS_P1;SDS_P2;PMS_P1;PMS_P2;Temp;Humidity;BMP_temperature;BMP_pressure;BME280_temperature;BME280_humidity;BME280_pressure;Samples;Min_cycle;Max_cycle;Signal;HPM_P1;HPM_P2
2021/04/16 00:01:34;;;;;;;7.20;4.27;;;;;;;1.01;100.00;101578.06;4971521;28;20225;-72
2021/04/16 00:04:00;;;;;;;5.87;4.17;;;;;;;1.00;100.00;101576.31;4968828;28;20233;-74
2021/04/16 00:06:26;;;;;;;6.33;4.80;;;;;;;1.01;100.00;101570.38;4969342;28;20217;-77
2021/04/16 00:08:52;;;;;;;6.63;4.57;;;;;;;1.00;100.00;101571.19;4968853;28;20261;-73
2021/04/16 00:11:21;;;;;;;7.00;5.00;;;;;;;0.99;100.00;101572.91;4969156;28;20201;-70
2021/04/16 00:13:48;;;;;;;7.57;4.40;;;;;;;1.00;100.00;101572.03;4969085;28;20296;-71
2021/04/16 00:16:18;;;;;;;6.13;4.27;;;;;;;1.03;100.00;101561.00;4968098;28;20211;-69
2021/04/16 00:18:45;;;;;;;8.03;4.83;;;;;;;1.01;100.00;101563.53;4968621;28;20232;-70
2021/04/16 00:21:12;;;;;;;7.27;4.40;;;;;;;1.03;100.00;101559.31;4967300;28;20214;-73
2021/04/16 00:23:38;;;;;;;7.23;4.60;;;;;;;1.03;100.00;101555.88;4968614;28;20219;-72
2021/04/16 00:26:05;;;;;;;5.87;4.20;;;;;;;1.04;100.00;101561.06;4969041;28;20202;-72
2021/04/16 00:28:32;;;;;;;5.87;4.10;;;;;;;1.04;100.00;101555.03;4970933;28;20206;-75
2021/04/16 00:31:01;;;;;;;6.50;4.13;;;;;;;1.05;100.00;101549.94;4968810;28;20202;-73
2021/04/16 00:33:27;;;;;;;5.50;4.03;;;;;;;1.06;100.00;101549.13;4966224;28;20225;-73
2021/04/16 00:35:55;;;;;;;5.57;4.13;;;;;;;1.05;100.00;101544.78;4965691;28;20206;-71
2021/04/16 00:38:22;;;;;;;6.20;4.33;;;;;;;1.06;100.00;101549.13;4967324;28;20207;-73
2021/04/16 00:40:52;;;;;;;7.77;4.20;;;;;;;1.05;100.00;101549.06;4969359;28;20282;-72
2021/04/16 00:43:21;;;;;;;6.60;4.27;;;;;;;1.04;100.00;101550.78;4966847;28;20246;-72
2021/04/16 00:45:47;;;;;;;6.80;4.13;;;;;;;1.02;100.00;101546.41;4984176;28;20589;-73
2021/04/16 00:48:24;;;;;;;6.23;3.53;;;;;;;1.04;100.00;101549.88;4985605;28;20223;-70
2021/04/16 00:50:52;;;;;;;7.63;3.87;;;;;;;1.05;100.00;101541.38;4964900;28;20203;-70
2021/04/16 00:53:21;;;;;;;8.03;3.50;;;;;;;1.05;100.00;101547.38;4979933;28;20627;-73
2021/04/16 00:55:48;;;;;;;5.97;3.37;;;;;;;1.05;100.00;101547.38;4972133;28;20525;-72
2021/04/16 00:58:15;;;;;;;4.93;3.67;;;;;;;1.04;100.00;101544.75;4971774;28;20850;-74
2021/04/16 01:00:43;;;;;;;6.33;3.70;;;;;;;1.05;100.00;101541.38;4971945;28;20200;-72
2021/04/16 01:03:09;;;;;;;4.53;3.33;;;;;;;1.05;100.00;101544.78;4980343;28;20729;-71
2021/04/16 01:05:36;;;;;;;8.37;4.00;;;;;;;1.05;100.00;101539.66;4976684;28;20289;-71
2021/04/16 01:08:03;;;;;;;6.77;3.77;;;;;;;1.03;100.00;101531.03;4970336;28;20202;-72
2021/04/16 01:10:29;;;;;;;5.80;3.73;;;;;;;1.04;100.00;101539.63;4980779;28;20298;-71
2021/04/16 01:12:55;;;;;;;6.90;3.67;;;;;;;1.05;100.00;101537.09;4977263;28;20266;-71
2021/04/16 01:15:28;;;;;;;5.10;3.63;;;;;;;1.05;100.00;101537.09;4971059;28;20212;-71
2021/04/16 01:17:57;;;;;;;6.00;3.50;;;;;;;1.06;100.00;101536.28;4971845;28;20198;-74
2021/04/16 01:20:26;;;;;;;4.70;3.53;;;;;;;1.07;100.00;101535.47;4971865;28;20202;-71
2021/04/16 01:22:59;;;;;;;5.00;3.53;;;;;;;1.07;100.00;101532.00;4971689;28;20603;-70
2021/04/16 01:25:27;;;;;;;3.77;3.37;;;;;;;1.04;100.00;101527.66;4972056;28;20823;-78
2021/04/16 01:27:54;;;;;;;5.27;3.50;;;;;;;1.07;100.00;101524.28;4971344;28;20212;-72
2021/04/16 01:30:23;;;;;;;7.63;3.40;;;;;;;1.04;100.00;101526.78;4971130;28;20254;-70
2021/04/16 01:32:49;;;;;;;3.33;3.03;;;;;;;1.06;100.00;101530.28;4971440;28;20212;-74
2021/04/16 01:35:20;;;;;;;4.33;3.17;;;;;;;1.05;100.00;101523.38;4971373;28;20228;-74
2021/04/16 01:37:46;;;;;;;5.17;3.10;;;;;;;1.06;100.00;101520.00;4971979;28;20256;-71
2021/04/16 01:40:13;;;;;;;6.03;3.00;;;;;;;1.05;100.00;101523.38;4979486;28;20700;-71
2021/04/16 01:42:41;;;;;;;6.97;3.80;;;;;;;1.04;100.00;101527.66;4971150;28;20656;-76
2021/04/16 01:45:08;;;;;;;5.07;3.43;;;;;;;1.08;100.00;101526.91;4981304;28;20195;-73
2021/04/16 01:47:34;;;;;;;7.70;4.10;;;;;;;1.05;100.00;101523.38;4987180;28;20286;-76
2021/04/16 01:50:00;;;;;;;5.33;3.60;;;;;;;1.05;100.00;101524.25;4982926;28;20286;-74
2021/04/16 01:52:28;;;;;;;6.27;3.07;;;;;;;1.04;100.00;101517.38;4974186;28;20303;-74
2021/04/16 01:54:55;;;;;;;8.27;3.53;;;;;;;1.07;100.00;101521.72;4975524;28;20209;-74
2021/04/16 01:57:25;;;;;;;5.50;3.27;;;;;;;1.08;100.00;101515.78;4971185;28;20208;-71
2021/04/16 01:59:53;;;;;;;7.80;3.50;;;;;;;1.05;100.00;101516.53;4970945;28;20198;-74
2021/04/16 02:02:22;;;;;;;3.83;2.77;;;;;;;1.07;100.00;101516.59;4969494;28;20713;-74
2021/04/16 02:04:48;;;;;;;9.00;3.97;;;;;;;1.04;100.00;101513.94;4990163;28;20211;-70
2021/04/16 02:07:14;;;;;;;6.57;3.70;;;;;;;1.04;100.00;101521.63;4983210;28;20904;-70
2021/04/16 02:09:41;;;;;;;6.20;3.13;;;;;;;1.04;100.00;101517.38;4970639;28;20204;-75
2021/04/16 02:12:09;;;;;;;4.10;3.07;;;;;;;1.04;100.00;101513.94;4993801;28;20548;-74
2021/04/16 02:14:36;;;;;;;6.10;3.10;;;;;;;1.04;100.00;101519.06;4978731;28;20208;-71
2021/04/16 02:17:06;;;;;;;5.53;3.30;;;;;;;1.01;100.00;101517.28;4970200;28;20681;-74
2021/04/16 02:19:32;;;;;;;6.77;3.70;;;;;;;1.00;100.00;101520.69;4970854;28;20198;-76
2021/04/16 02:21:58;;;;;;;5.17;3.67;;;;;;;1.00;100.00;101518.13;4969412;28;20225;-71
2021/04/16 02:24:24;;;;;;;4.17;2.87;;;;;;;1.03;100.00;101514.78;4969662;28;20216;-71
2021/04/16 02:26:50;;;;;;;4.00;3.10;;;;;;;1.01;100.00;101514.72;4967103;28;20216;-74
2021/04/16 02:29:18;;;;;;;4.07;3.27;;;;;;;1.05;100.00;101519.13;4970282;28;20204;-71
2021/04/16 02:31:44;;;;;;;4.83;3.17;;;;;;;1.03;100.00;101525.06;4969269;28;20210;-74
2021/04/16 02:34:13;;;;;;;6.80;3.43;;;;;;;1.04;100.00;101521.63;4970494;28;20226;-77
2021/04/16 02:36:39;;;;;;;7.40;3.03;;;;;;;1.02;100.00;101513.91;4968192;28;20200;-73
2021/04/16 02:39:07;;;;;;;5.10;3.23;;;;;;;1.02;100.00;101513.03;4979800;28;20239;-72
2021/04/16 02:41:34;;;;;;;4.10;2.87;;;;;;;1.02;100.00;101513.03;4968401;28;20223;-73
2021/04/16 02:44:00;;;;;;;4.73;3.10;;;;;;;1.01;100.00;101519.88;4969780;28;20234;-75
2021/04/16 02:46:26;;;;;;;5.00;3.00;;;;;;;1.00;100.00;101522.38;4978776;28;20208;-71
2021/04/16 02:48:52;;;;;;;5.80;2.80;;;;;;;1.02;100.00;101524.19;4975022;28;20258;-71
2021/04/16 02:51:19;;;;;;;4.93;2.73;;;;;;;1.03;100.00;101520.78;4968852;28;20234;-73
2021/04/16 02:53:45;;;;;;;7.10;3.07;;;;;;;1.05;100.00;101513.97;4969889;28;20226;-71
2021/04/16 02:56:11;;;;;;;3.73;2.80;;;;;;;1.04;100.00;101513.94;4969837;28;20585;-71
2021/04/16 02:58:37;;;;;;;4.93;2.73;;;;;;;1.02;100.00;101516.47;4969451;28;20200;-70
2021/04/16 03:01:04;;;;;;;4.87;2.93;;;;;;;1.03;100.00;101519.91;4969732;28;20228;-70
2021/04/16 03:03:30;;;;;;;5.87;2.30;;;;;;;1.05;100.00;101515.69;4969512;28;20218;-70
2021/04/16 03:05:56;;;;;;;4.23;2.57;;;;;;;1.06;100.00;101515.72;4970056;28;20184;-69
2021/04/16 03:08:23;;;;;;;5.00;2.47;;;;;;;0.99;100.00;101518.09;4969793;28;20206;-70
2021/04/16 03:10:50;;;;;;;8.40;3.00;;;;;;;0.92;100.00;101517.06;4970183;28;20225;-74
2021/04/16 03:13:17;;;;;;;3.80;2.77;;;;;;;0.92;100.00;101515.34;4969637;28;20734;-72
2021/04/16 03:15:43;;;;;;;5.83;3.17;;;;;;;0.92;100.00;101517.06;4968781;28;20242;-72
2021/04/16 03:18:09;;;;;;;4.97;2.97;;;;;;;0.89;100.00;101507.56;4969356;28;20215;-73
2021/04/16 03:20:35;;;;;;;3.47;2.27;;;;;;;0.90;100.00;101517.00;4988896;28;20202;-71
2021/04/16 03:23:01;;;;;;;5.60;2.67;;;;;;;0.92;100.00;101515.34;4969295;28;20228;-77
2021/04/16 03:25:28;;;;;;;6.27;2.53;;;;;;;0.94;100.00;101521.38;4969530;28;20284;-76
2021/04/16 03:27:55;;;;;;;4.37;2.90;;;;;;;0.87;100.00;101516.06;4969071;28;20194;-71
2021/04/16 03:30:23;;;;;;;6.10;2.80;;;;;;;0.84;100.00;101518.53;4969298;28;20207;-72
2021/04/16 03:32:50;;;;;;;4.67;2.80;;;;;;;0.87;100.00;101522.06;4973249;28;20244;-73
2021/04/16 03:35:17;;;;;;;4.60;3.13;;;;;;;0.83;100.00;101512.53;4967818;28;20203;-77
2021/04/16 03:37:43;;;;;;;4.77;2.93;;;;;;;0.80;100.00;101516.72;4968459;28;20213;-72
2021/04/16 03:40:11;;;;;;;6.03;3.63;;;;;;;0.79;100.00;101526.09;4968486;28;20252;-73
2021/04/16 03:42:38;;;;;;;6.47;3.40;;;;;;;0.72;100.00;101519.03;4968651;28;20248;-70
2021/04/16 03:45:05;;;;;;;7.73;3.63;;;;;;;0.70;100.00;101523.28;4968805;28;20203;-74
2021/04/16 03:47:31;;;;;;;5.60;3.10;;;;;;;0.67;100.00;101520.59;4968406;28;20241;-73
2021/04/16 03:49:57;;;;;;;4.97;3.27;;;;;;;0.63;100.00;101518.78;4969011;28;20214;-74
2021/04/16 03:52:25;;;;;;;5.80;3.40;;;;;;;0.60;100.00;101517.03;4968691;28;20198;-74
2021/04/16 03:54:52;;;;;;;7.10;3.40;;;;;;;0.55;100.00;101521.16;4967225;28;20234;-72
2021/04/16 03:57:18;;;;;;;4.83;3.20;;;;;;;0.59;100.00;101522.97;4968511;28;20212;-72
2021/04/16 03:59:45;;;;;;;4.53;2.83;;;;;;;0.60;100.00;101531.53;4968932;28;20207;-77
2021/04/16 04:02:12;;;;;;;5.27;2.80;;;;;;;0.61;100.00;101530.72;4961249;28;20610;-72
2021/04/16 04:04:38;;;;;;;6.10;3.23;;;;;;;0.52;100.00;101528.75;4969872;28;20204;-74
2021/04/16 04:07:04;;;;;;;4.43;3.07;;;;;;;0.53;100.00;101531.38;4963321;28;20890;-75
2021/04/16 04:09:30;;;;;;;7.03;3.43;;;;;;;0.53;100.00;101535.63;4968137;28;20197;-73
2021/04/16 04:11:56;;;;;;;6.30;3.30;;;;;;;0.54;100.00;101534.78;4967442;28;20198;-74
2021/04/16 04:14:22;;;;;;;5.20;3.17;;;;;;;0.49;100.00;101534.66;4968571;28;20249;-75
2021/04/16 04:16:55;;;;;;;4.57;2.63;;;;;;;0.51;100.00;101539.81;4971168;28;20694;-76
2021/04/16 04:19:23;;;;;;;5.73;3.43;;;;;;;0.52;100.00;101539.00;4972839;28;20261;-71
2021/04/16 04:21:50;;;;;;;6.10;3.60;;;;;;;0.52;100.00;101532.19;4971876;28;20216;-75
2021/04/16 04:24:16;;;;;;;4.03;3.20;;;;;;;0.57;100.00;101530.63;4968046;28;20905;-74
2021/04/16 04:26:43;;;;;;;5.00;3.10;;;;;;;0.57;100.00;101538.31;4968113;28;20201;-71
2021/04/16 04:29:09;;;;;;;4.13;3.13;;;;;;;0.59;100.00;101537.50;4968611;28;20568;-73
2021/04/16 04:31:36;;;;;;;5.37;3.33;;;;;;;0.58;100.00;101534.03;4976245;28;20564;-76
2021/04/16 04:34:04;;;;;;;4.37;3.07;;;;;;;0.57;100.00;101534.88;4973468;28;20866;-72
2021/04/16 04:36:30;;;;;;;6.27;3.33;;;;;;;0.56;100.00;101534.03;4971969;28;20207;-75
2021/04/16 04:38:56;;;;;;;5.33;3.10;;;;;;;0.56;100.00;101538.25;4972151;28;20194;-76
2021/04/16 04:41:22;;;;;;;6.83;3.50;;;;;;;0.63;100.00;101541.88;4970562;28;20206;-74
2021/04/16 04:43:57;;;;;;;6.13;3.53;;;;;;;0.67;100.00;101543.72;4971837;28;20306;-71
2021/04/16 04:46:23;;;;;;;7.27;3.27;;;;;;;0.66;100.00;101539.41;4971342;28;20213;-72
2021/04/16 04:48:49;;;;;;;4.63;3.30;;;;;;;0.66;100.00;101534.28;4972481;28;20221;-73
2021/04/16 04:51:16;;;;;;;6.90;3.67;;;;;;;0.67;100.00;101538.56;4972119;28;20568;-73
2021/04/16 04:53:42;;;;;;;4.27;3.37;;;;;;;0.66;100.00;101534.28;4971679;28;20222;-71
2021/04/16 04:56:08;;;;;;;5.43;3.53;;;;;;;0.65;100.00;101535.09;4970971;28;20629;-73
2021/04/16 04:58:34;;;;;;;5.20;3.60;;;;;;;0.63;100.00;101531.63;4972214;28;20202;-74
2021/04/16 05:01:00;;;;;;;5.77;3.60;;;;;;;0.65;100.00;101536.00;4971632;28;20229;-72
2021/04/16 05:03:26;;;;;;;5.77;3.67;;;;;;;0.67;100.00;101534.34;4971565;28;20944;-72
2021/04/16 05:05:52;;;;;;;6.53;3.63;;;;;;;0.71;100.00;101527.59;4968702;28;20226;-72
2021/04/16 05:08:19;;;;;;;6.03;3.93;;;;;;;0.75;100.00;101534.53;4970981;28;20686;-72
2021/04/16 05:10:45;;;;;;;5.20;4.00;;;;;;;0.73;100.00;101536.19;4971290;28;20216;-74
2021/04/16 05:13:10;;;;;;;5.73;3.87;;;;;;;0.79;100.00;101541.50;4970832;28;20639;-73
2021/04/16 05:15:36;;;;;;;5.70;4.07;;;;;;;0.83;100.00;101535.63;4971317;28;20205;-73
2021/04/16 05:18:03;;;;;;;5.20;3.70;;;;;;;0.86;100.00;101540.88;4971557;28;20203;-73
2021/04/16 05:20:28;;;;;;;6.97;3.80;;;;;;;0.88;100.00;101534.06;4971356;28;20210;-73
2021/04/16 05:22:54;;;;;;;6.47;4.23;;;;;;;0.90;100.00;101536.69;4970933;28;20277;-73
2021/04/16 05:25:21;;;;;;;6.70;3.90;;;;;;;0.91;100.00;101539.28;4970997;28;20552;-74
2021/04/16 05:27:48;;;;;;;7.50;4.17;;;;;;;0.89;100.00;101543.50;4970346;28;20707;-74
2021/04/16 05:30:15;;;;;;;8.63;4.37;;;;;;;0.89;100.00;101547.78;4971807;28;20563;-74
2021/04/16 05:32:42;;;;;;;6.13;4.07;;;;;;;0.90;100.00;101547.81;4975704;28;20224;-71
2021/04/16 05:35:09;;;;;;;12.50;4.00;;;;;;;0.91;100.00;101552.13;4975340;28;20300;-73
2021/04/16 05:37:37;;;;;;;8.70;3.93;;;;;;;0.96;100.00;101548.81;4965560;28;20667;-74
2021/04/16 05:40:04;;;;;;;6.60;3.60;;;;;;;0.99;100.00;101554.91;4977048;28;20204;-72
2021/04/16 05:42:30;;;;;;;6.37;3.47;;;;;;;1.00;100.00;101548.94;4969249;28;20232;-72
2021/04/16 05:44:59;;;;;;;6.77;3.97;;;;;;;1.06;100.00;101545.69;4970544;28;20721;-73
2021/04/16 05:47:25;;;;;;;5.73;3.73;;;;;;;1.09;100.00;101553.47;4967942;28;20237;-74
2021/04/16 05:49:52;;;;;;;12.23;5.00;;;;;;;1.17;100.00;101545.97;4971228;28;20206;-72
2021/04/16 05:52:18;;;;;;;9.33;4.40;;;;;;;1.23;100.00;101549.59;4971012;28;20204;-76
2021/04/16 05:54:44;;;;;;;5.23;3.60;;;;;;;1.22;100.00;101550.41;4982853;28;20249;-73
2021/04/16 05:57:10;;;;;;;5.87;4.07;;;;;;;1.29;100.00;101554.00;4970404;28;20203;-74
2021/04/16 05:59:37;;;;;;;8.80;4.00;;;;;;;1.35;100.00;101555.88;4978793;28;20218;-76
2021/04/16 06:02:03;;;;;;;6.47;3.83;;;;;;;1.36;100.00;101555.91;4969166;28;20216;-73
2021/04/16 06:04:30;;;;;;;5.90;4.20;;;;;;;1.35;100.00;101559.31;4969436;28;20255;-73
2021/04/16 06:06:56;;;;;;;7.57;3.73;;;;;;;1.38;100.00;101551.69;4970765;28;20674;-73
2021/04/16 06:09:22;;;;;;;7.03;3.87;;;;;;;1.45;100.00;101556.16;4973369;28;20287;-72
2021/04/16 06:11:47;;;;;;;8.43;4.27;;;;;;;1.49;100.00;101555.38;4971302;28;20244;-71
2021/04/16 06:14:14;;;;;;;8.07;5.13;;;;;;;1.55;100.00;101557.28;4965712;28;20300;-73
2021/04/16 06:16:40;;;;;;;8.10;4.43;;;;;;;1.60;100.00;101545.41;4968556;28;20203;-76
2021/04/16 06:19:07;;;;;;;8.47;4.67;;;;;;;1.73;100.00;101548.28;4970663;28;20218;-73
2021/04/16 06:21:33;;;;;;;8.97;4.07;;;;;;;1.72;100.00;101543.97;4969413;28;20674;-71
2021/04/16 06:23:59;;;;;;;7.63;4.77;;;;;;;1.70;100.00;101549.94;4963961;28;20717;-71
2021/04/16 06:26:25;;;;;;;7.10;3.83;;;;;;;1.74;100.00;101543.16;4970653;28;20214;-71
2021/04/16 06:28:51;;;;;;;9.27;4.10;;;;;;;1.80;100.00;101545.03;4970221;28;20219;-73
2021/04/16 06:31:18;;;;;;;9.73;3.87;;;;;;;1.89;100.00;101540.09;4971498;28;20208;-72
2021/04/16 06:33:45;;;;;;;9.63;4.50;;;;;;;1.91;100.00;101541.00;4969734;28;20581;-77
2021/04/16 06:36:15;;;;;;;10.00;3.90;;;;;;;2.02;100.00;101538.69;4970384;28;20205;-73
2021/04/16 06:38:44;;;;;;;7.80;3.90;;;;;;;2.04;100.00;101539.59;4969584;28;20628;-71
2021/04/16 06:41:16;;;;;;;6.10;3.63;;;;;;;2.10;100.00;101544.03;4970222;28;20678;-76
2021/04/16 06:43:46;;;;;;;6.53;3.33;;;;;;;2.08;100.00;101534.56;4969888;28;20328;-73
2021/04/16 06:46:16;;;;;;;6.30;3.77;;;;;;;2.10;100.00;101549.19;4969070;28;20247;-73
2021/04/16 06:48:42;;;;;;;7.23;3.77;;;;;;;2.14;100.00;101545.81;4970078;28;20197;-71
2021/04/16 06:51:10;;;;;;;9.53;3.87;;;;;;;2.14;100.00;101548.41;4970003;28;20209;-74
2021/04/16 06:53:47;;;;;;;7.27;4.07;;;;;;;2.14;100.00;101549.25;4967944;28;20224;-75
2021/04/16 06:56:18;;;;;;;7.37;3.97;;;;;;;2.15;100.00;101543.28;4969969;28;20212;-75
2021/04/16 06:58:50;;;;;;;7.60;4.10;;;;;;;2.17;100.00;101545.91;4969655;28;20328;-75
2021/04/16 07:01:25;;;;;;;7.70;4.03;;;;;;;2.20;100.00;101551.09;4957362;28;20248;-74
2021/04/16 07:04:08;;;;;;;11.60;5.53;;;;;;;2.25;100.00;101546.94;4964649;28;20601;-72
2021/04/16 07:06:35;;;;;;;13.40;6.03;;;;;;;2.32;100.00;101551.38;4969551;28;20321;-72
2021/04/16 07:09:05;;;;;;;9.77;5.10;;;;;;;2.39;100.00;101537.84;4969120;28;20197;-75
2021/04/16 07:11:35;;;;;;;12.40;5.17;;;;;;;2.44;100.00;101551.66;4971486;28;20297;-75
2021/04/16 07:14:04;;;;;;;10.30;5.97;;;;;;;2.50;100.00;101543.22;4969075;28;20218;-74
2021/04/16 07:16:32;;;;;;;11.87;6.23;;;;;;;2.60;100.00;101544.28;4969594;28;20198;-71
2021/04/16 07:19:05;;;;;;;15.73;6.17;;;;;;;2.61;100.00;101535.72;4969386;28;20728;-74
2021/04/16 07:21:31;;;;;;;12.90;6.17;;;;;;;2.70;100.00;101545.34;4969200;28;20229;-73
2021/04/16 07:24:02;;;;;;;12.73;6.10;;;;;;;2.68;100.00;101549.59;4969292;28;20619;-76
2021/04/16 07:26:35;;;;;;;11.73;6.07;;;;;;;2.78;100.00;101554.06;4969785;28;20208;-74
2021/04/16 07:29:02;;;;;;;16.97;7.57;;;;;;;2.79;100.00;101546.38;4975426;28;20205;-74
2021/04/16 07:31:48;;;;;;;12.50;7.07;;;;;;;2.88;100.00;101550.84;4969144;28;20241;-74
2021/04/16 07:34:19;;;;;;;11.33;5.63;;;;;;;2.92;100.00;101544.06;4971602;28;20226;-73
2021/04/16 07:36:45;;;;;;;10.67;6.27;;;;;;;2.99;100.00;101544.22;4970827;28;20315;-71
2021/04/16 07:39:26;;;;;;;12.20;6.60;;;;;;;3.15;100.00;101545.41;4969488;28;20225;-70
2021/04/16 07:41:55;;;;;;;11.10;6.17;;;;;;;3.17;100.00;101545.44;4961431;28;20221;-75
2021/04/16 07:44:24;;;;;;;15.77;7.40;;;;;;;3.27;100.00;101542.16;4968816;28;20226;-72
2021/04/16 07:46:52;;;;;;;11.83;6.70;;;;;;;3.32;100.00;101545.69;4968827;28;20585;-76
2021/04/16 07:49:30;;;;;;;10.70;6.70;;;;;;;3.43;100.00;101538.19;4976847;28;20837;-77
2021/04/16 07:52:00;;;;;;;13.47;6.30;;;;;;;3.55;100.00;101543.56;4962108;28;20201;-71
2021/04/16 07:54:29;;;;;;;12.17;7.13;;;;;;;3.62;100.00;101539.34;4968507;28;20261;-73
2021/04/16 07:57:11;;;;;;;14.83;7.13;;;;;;;3.78;100.00;101543.03;4968839;28;20186;-72
2021/04/16 07:59:55;;;;;;;11.43;6.57;;;;;;;3.87;100.00;101550.06;4972333;28;20716;-72
2021/04/16 08:02:28;;;;;;;9.50;6.27;;;;;;;3.85;100.00;101554.34;4965127;28;20226;-75
2021/04/16 08:04:54;;;;;;;11.53;6.23;;;;;;;3.93;100.00;101553.63;4961140;28;20213;-72
2021/04/16 08:07:27;;;;;;;15.67;7.53;;;;;;;3.92;100.00;101546.75;4968545;28;20208;-72
2021/04/16 08:09:55;;;;;;;12.47;7.17;;;;;;;4.04;100.00;101550.34;4968597;28;20204;-76
2021/04/16 08:12:25;;;;;;;8.77;5.73;;;;;;;4.09;100.00;101552.16;4968501;28;20202;-73
2021/04/16 08:15:12;;;;;;;10.17;6.53;;;;;;;4.11;100.00;101558.19;4968573;28;20249;-73
2021/04/16 08:17:40;;;;;;;12.27;5.70;;;;;;;4.19;100.00;101563.50;4964983;28;20208;-73
2021/04/16 08:20:23;;;;;;;10.87;6.27;;;;;;;4.13;99.58;101564.28;4966819;28;20224;-74
2021/04/16 08:22:50;;;;;;;11.13;7.07;;;;;;;4.05;99.13;101568.44;4979247;28;20304;-73
2021/04/16 08:25:19;;;;;;;9.33;6.63;;;;;;;4.15;100.00;101566.84;4968732;28;20710;-72
2021/04/16 08:27:53;;;;;;;7.07;5.57;;;;;;;4.13;99.64;101561.69;4968376;28;20273;-71
2021/04/16 08:30:24;;;;;;;12.40;7.07;;;;;;;4.18;99.33;101557.44;4967994;28;20202;-74
2021/04/16 08:32:55;;;;;;;9.67;6.00;;;;;;;4.24;98.25;101561.84;4965583;28;20300;-71
2021/04/16 08:35:25;;;;;;;10.20;6.13;;;;;;;4.38;97.57;101558.59;4968366;28;20210;-73
2021/04/16 08:37:55;;;;;;;11.53;6.23;;;;;;;4.57;97.96;101547.66;4967051;28;20838;-72
2021/04/16 08:40:30;;;;;;;12.87;6.27;;;;;;;4.66;97.46;101549.50;4968146;28;20201;-74
2021/04/16 08:42:58;;;;;;;9.30;6.53;;;;;;;4.64;96.35;101554.63;4967377;28;20311;-72
2021/04/16 08:45:28;;;;;;;7.93;5.83;;;;;;;4.69;95.51;101560.75;4968305;28;20237;-74
2021/04/16 08:47:57;;;;;;;10.87;6.47;;;;;;;4.86;95.79;101563.53;4967605;28;20205;-75
2021/04/16 08:50:29;;;;;;;9.60;6.33;;;;;;;4.88;95.94;101567.00;4966540;28;20744;-72
2021/04/16 08:52:57;;;;;;;10.47;5.70;;;;;;;4.96;95.93;101558.47;4965907;28;20743;-73
2021/04/16 08:55:31;;;;;;;11.20;5.97;;;;;;;4.99;94.89;101564.56;4967643;28;20209;-75
2021/04/16 08:58:00;;;;;;;10.07;7.17;;;;;;;5.01;93.69;101572.31;4967655;28;20293;-76
2021/04/16 09:00:33;;;;;;;11.93;7.10;;;;;;;4.95;93.63;101577.44;4972638;28;20205;-72
2021/04/16 09:03:01;;;;;;;9.90;6.63;;;;;;;4.97;92.85;101573.16;4970520;28;20309;-75
2021/04/16 09:05:30;;;;;;;10.67;6.20;;;;;;;4.94;92.67;101576.53;4971841;28;20284;-75
2021/04/16 09:07:59;;;;;;;12.60;6.00;;;;;;;4.98;93.24;101570.59;4970221;28;20256;-73
2021/04/16 09:10:43;;;;;;;13.33;5.43;;;;;;;5.01;93.02;101569.75;4971663;28;20205;-74
2021/04/16 09:13:32;;;;;;;8.40;5.43;;;;;;;5.02;93.04;101559.44;4971587;28;20225;-72
2021/04/16 09:16:22;;;;;;;9.40;6.03;;;;;;;5.17;94.82;101560.44;4979797;28;20209;-75
2021/04/16 09:18:50;;;;;;;9.73;6.43;;;;;;;5.09;91.28;101566.41;4971192;28;20218;-77
2021/04/16 09:21:27;;;;;;;8.83;5.80;;;;;;;5.20;92.92;101563.06;4971295;28;20768;-75
2021/04/16 09:23:58;;;;;;;10.07;6.43;;;;;;;5.06;91.02;101573.25;4971710;28;20304;-72
2021/04/16 09:27:01;;;;;;;8.07;6.53;;;;;;;5.11;91.63;101572.44;4971792;28;20564;-73
2021/04/16 09:29:39;;;;;;;8.17;6.07;;;;;;;5.09;91.73;101566.41;4968630;28;20200;-72
2021/04/16 09:32:38;;;;;;;10.53;6.03;;;;;;;5.11;91.25;101571.59;4971588;28;20214;-72
2021/04/16 09:35:09;;;;;;;8.73;5.83;;;;;;;5.25;92.25;101566.56;4964396;28;20231;-75
2021/04/16 09:37:39;;;;;;;8.83;6.20;;;;;;;5.09;89.65;101570.72;4971152;28;20197;-72
2021/04/16 09:40:29;;;;;;;12.53;6.73;;;;;;;5.06;90.22;101571.53;4970620;28;20671;-76
2021/04/16 09:42:58;;;;;;;9.67;6.20;;;;;;;5.16;90.14;101574.25;4971209;28;20277;-73
2021/04/16 09:45:42;;;;;;;10.23;5.63;;;;;;;5.13;90.11;101572.47;4971474;28;20202;-72
2021/04/16 09:48:09;;;;;;;10.57;5.77;;;;;;;5.08;89.72;101566.38;4983598;28;20737;-72
2021/04/16 09:50:39;;;;;;;9.33;6.13;;;;;;;5.21;91.00;101573.44;4990728;28;20190;-74
2021/04/16 09:53:15;;;;;;;9.80;6.20;;;;;;;5.27;90.52;101570.03;4990445;28;20942;-75
2021/04/16 09:56:15;;;;;;;12.40;7.00;;;;;;;5.46;91.05;101571.97;4976887;28;20308;-73
2021/04/16 09:59:25;;;;;;;10.20;6.10;;;;;;;5.26;88.51;101578.66;4974523;28;20659;-71
2021/04/16 10:02:32;;;;;;;9.50;5.40;;;;;;;5.34;87.73;101579.59;4978261;28;20202;-74
2021/04/16 10:05:03;;;;;;;10.67;5.30;;;;;;;5.57;89.92;101576.38;4971061;28;20359;-73
2021/04/16 10:07:37;;;;;;;9.30;6.17;;;;;;;5.60;87.42;101586.78;4971050;28;20276;-72
2021/04/16 10:10:16;;;;;;;7.77;4.87;;;;;;;5.61;87.52;101575.56;4970747;28;20285;-72
2021/04/16 10:12:42;;;;;;;5.77;4.90;;;;;;;5.68;87.18;101573.06;4969959;28;20297;-72
2021/04/16 10:15:22;;;;;;;9.50;5.20;;;;;;;5.78;86.45;101580.91;4970200;28;20204;-73
2021/04/16 10:17:59;;;;;;;7.40;5.03;;;;;;;5.88;86.18;101575.81;4989760;28;20197;-71
2021/04/16 10:20:28;;;;;;;5.87;4.73;;;;;;;6.02;85.07;101583.72;4990013;28;20217;-75
2021/04/16 10:23:00;;;;;;;7.13;4.70;;;;;;;6.04;84.01;101573.38;4989827;28;20708;-74
2021/04/16 12:38:49;;;;;;;5.50;3.20;;;;;;;9.35;59.52;101557.22;4973057;28;20893;-73
2021/04/16 12:41:18;;;;;;;6.00;3.77;;;;;;;9.45;59.24;101558.91;4973131;28;20562;-71
2021/04/16 12:43:46;;;;;;;4.63;3.33;;;;;;;9.46;58.04;101558.00;4972523;28;20308;-72
2021/04/16 12:46:15;;;;;;;6.40;3.30;;;;;;;9.37;58.22;101565.91;4969355;28;20196;-72
2021/04/16 12:48:42;;;;;;;5.33;3.50;;;;;;;9.17;57.98;101553.00;4971004;28;20621;-71
2021/04/16 12:51:08;;;;;;;5.07;3.17;;;;;;;9.22;58.92;101554.72;4971078;28;20202;-77
2021/04/16 12:53:34;;;;;;;4.67;3.53;;;;;;;9.16;60.32;101540.84;4977770;28;20766;-78
2021/04/16 12:56:00;;;;;;;4.47;3.17;;;;;;;9.13;60.48;101543.47;4966834;28;20194;-76
2021/04/16 12:58:29;;;;;;;5.07;3.30;;;;;;;9.15;61.08;101547.81;4970885;28;20232;-76
2021/04/16 13:00:57;;;;;;;8.87;3.60;;;;;;;9.13;58.82;101546.97;4975207;28;20210;-71
2021/04/16 13:03:30;;;;;;;8.73;3.23;;;;;;;9.07;58.62;101552.19;4968010;28;20225;-71
2021/04/16 13:05:57;;;;;;;5.03;3.43;;;;;;;9.07;58.45;101549.56;4973288;28;20206;-75
2021/04/16 13:08:23;;;;;;;5.50;3.30;;;;;;;9.09;58.59;101540.03;4971582;28;20201;-71
2021/04/16 13:10:50;;;;;;;6.37;3.40;;;;;;;9.20;59.24;101543.44;4967030;28;20736;-71
2021/04/16 13:13:16;;;;;;;6.83;3.47;;;;;;;9.24;59.88;101537.34;4970633;28;20630;-71
2021/04/16 13:15:42;;;;;;;5.17;3.73;;;;;;;9.16;58.28;101540.84;4972424;28;20669;-73
2021/04/16 13:18:14;;;;;;;5.53;2.97;;;;;;;8.89;57.47;101541.00;4966519;28;20213;-71
2021/04/16 13:20:44;;;;;;;4.07;2.97;;;;;;;8.82;58.43;101536.69;4974261;28;20754;-73
2021/04/16 13:23:10;;;;;;;4.37;3.27;;;;;;;8.69;58.80;101537.63;4970794;28;20614;-71
2021/04/16 13:25:36;;;;;;;5.13;2.97;;;;;;;8.77;59.00;101524.59;4970859;28;20221;-73
2021/04/16 13:28:02;;;;;;;4.53;3.20;;;;;;;8.71;59.03;101526.34;4970333;28;20617;-76
2021/04/16 13:30:29;;;;;;;4.43;3.33;;;;;;;8.81;58.46;101519.38;4970224;28;20320;-76
2021/04/16 13:32:58;;;;;;;4.63;2.80;;;;;;;8.93;58.28;101520.19;4970161;28;20224;-76
2021/04/16 13:35:30;;;;;;;4.67;3.20;;;;;;;9.00;58.51;101520.13;4970937;28;20195;-77
2021/04/16 13:38:00;;;;;;;6.97;3.23;;;;;;;9.15;58.61;101518.34;4977232;28;20613;-77
2021/04/16 13:40:26;;;;;;;5.30;2.93;;;;;;;9.09;57.81;101517.50;4970553;28;20194;-75
2021/04/16 13:43:11;;;;;;;7.13;2.50;;;;;;;9.22;58.54;101510.47;4968757;28;20247;-71
2021/04/16 13:45:58;;;;;;;5.13;2.60;;;;;;;9.24;58.61;101503.50;4973938;28;20212;-74
2021/04/16 13:48:46;;;;;;;4.57;2.43;;;;;;;9.53;58.36;101507.63;4967684;28;20208;-77
2021/04/16 13:51:34;;;;;;;5.43;2.60;;;;;;;9.32;58.26;101500.84;4967708;28;20757;-71